sensor_id;sensor_type;location;lat;lon;timestamp;pressure;altitude;pressure_sealevel;temperature;humidity
33697;BME280;20031;43.416;23.232;2023-04-03T00:02:14;99445.28;;;9.11;68.66
33697;BME280;20031;43.416;23.232;2023-04-03T00:04:40;99446.09;;;9.11;68.40
33697;BME280;20031;43.416;23.232;2023-04-03T00:07:06;99440.25;;;9.09;68.00
33697;BME280;20031;43.416;23.232;2023-04-03T00:09:31;99446.59;;;9.07;68.01
33697;BME280;20031;43.416;23.232;2023-04-03T00:11:56;99443.50;;;9.03;67.95
33697;BME280;20031;43.416;23.232;2023-04-03T00:14:22;99437.00;;;8.99;68.01
33697;BME280;20031;43.416;23.232;2023-04-03T00:16:47;99438.81;;;8.99;68.20
33697;BME280;20031;43.416;23.232;2023-04-03T00:19:13;99438.00;;;8.98;68.29
33697;BME280;20031;43.416;23.232;2023-04-03T00:21:38;99439.59;;;8.99;68.34
33697;BME280;20031;43.416;23.232;2023-04-03T00:24:04;99442.19;;;8.99;68.03
33697;BME280;20031;43.416;23.232;2023-04-03T00:26:30;99445.78;;;8.98;68.05
33697;BME280;20031;43.416;23.232;2023-04-03T00:28:55;99442.53;;;8.96;67.97
33697;BME280;20031;43.416;23.232;2023-04-03T00:31:21;99446.13;;;8.95;68.15
33697;BME280;20031;43.416;23.232;2023-04-03T00:33:47;99447.25;;;8.93;67.85
33697;BME280;20031;43.416;23.232;2023-04-03T00:36:12;99444.50;;;8.94;68.00
33697;BME280;20031;43.416;23.232;2023-04-03T00:38:38;99436.03;;;8.92;68.13
33697;BME280;20031;43.416;23.232;2023-04-03T00:41:04;99443.03;;;8.84;68.50
33697;BME280;20031;43.416;23.232;2023-04-03T00:43:29;99439.78;;;8.82;68.91
33697;BME280;20031;43.416;23.232;2023-04-03T00:45:57;99433.28;;;8.78;69.10
33697;BME280;20031;43.416;23.232;2023-04-03T00:48:29;99427.63;;;8.74;68.97
33697;BME280;20031;43.416;23.232;2023-04-03T00:50:56;99434.44;;;8.67;69.83
33697;BME280;20031;43.416;23.232;2023-04-03T00:53:29;99424.03;;;8.60;69.83
33697;BME280;20031;43.416;23.232;2023-04-03T00:55:56;99419.00;;;8.50;70.26
33697;BME280;20031;43.416;23.232;2023-04-03T00:58:27;99427.72;;;8.41;70.59
33697;BME280;20031;43.416;23.232;2023-04-03T01:00:55;99428.22;;;8.37;70.48
33697;BME280;20031;43.416;23.232;2023-04-03T01:03:24;99436.66;;;8.39;70.58
33697;BME280;20031;43.416;23.232;2023-04-03T01:05:50;99428.72;;;8.40;70.54
33697;BME280;20031;43.416;23.232;2023-04-03T01:08:15;99435.38;;;8.43;70.54
33697;BME280;20031;43.416;23.232;2023-04-03T01:10:41;99423.38;;;8.42;70.49
33697;BME280;20031;43.416;23.232;2023-04-03T01:13:26;99428.56;;;8.42;70.42
33697;BME280;20031;43.416;23.232;2023-04-03T01:15:52;99419.81;;;8.43;70.50
33697;BME280;20031;43.416;23.232;2023-04-03T01:18:17;99419.16;;;8.41;70.83
33697;BME280;20031;43.416;23.232;2023-04-03T01:20:47;99426.28;;;8.39;70.98
33697;BME280;20031;43.416;23.232;2023-04-03T01:25:49;99432.41;;;8.30;71.91
33697;BME280;20031;43.416;23.232;2023-04-03T01:28:18;99438.59;;;8.29;71.53
33697;BME280;20031;43.416;23.232;2023-04-03T01:33:32;99439.88;;;8.25;71.58
33697;BME280;20031;43.416;23.232;2023-04-03T01:35:58;99439.09;;;8.24;72.29
33697;BME280;20031;43.416;23.232;2023-04-03T01:38:23;99440.53;;;8.19;72.91
33697;BME280;20031;43.416;23.232;2023-04-03T01:40:49;99442.13;;;8.12;73.03
33697;BME280;20031;43.416;23.232;2023-04-03T01:43:14;99438.50;;;8.05;73.41
33697;BME280;20031;43.416;23.232;2023-04-03T01:45:40;99433.28;;;7.97;73.64
33697;BME280;20031;43.416;23.232;2023-04-03T01:48:05;99443.97;;;7.94;73.77
33697;BME280;20031;43.416;23.232;2023-04-03T01:50:31;99451.25;;;7.91;73.87
33697;BME280;20031;43.416;23.232;2023-04-03T01:52:57;99447.34;;;7.87;74.43
33697;BME280;20031;43.416;23.232;2023-04-03T01:55:22;99446.53;;;7.86;74.59
33697;BME280;20031;43.416;23.232;2023-04-03T01:57:48;99442.63;;;7.82;74.43
33697;BME280;20031;43.416;23.232;2023-04-03T02:00:13;99445.53;;;7.79;74.50
33697;BME280;20031;43.416;23.232;2023-04-03T02:02:39;99450.38;;;7.74;74.14
33697;BME280;20031;43.416;23.232;2023-04-03T02:05:05;99448.75;;;7.73;74.47
33697;BME280;20031;43.416;23.232;2023-04-03T02:07:31;99456.38;;;7.75;74.54
33697;BME280;20031;43.416;23.232;2023-04-03T02:09:56;99446.81;;;7.75;74.08
33697;BME280;20031;43.416;23.232;2023-04-03T02:12:21;99454.44;;;7.77;74.45
33697;BME280;20031;43.416;23.232;2023-04-03T02:14:47;99454.44;;;7.77;73.73
33697;BME280;20031;43.416;23.232;2023-04-03T02:17:12;99455.22;;;7.77;73.75
33697;BME280;20031;43.416;23.232;2023-04-03T02:19:38;99455.59;;;7.82;73.40
33697;BME280;20031;43.416;23.232;2023-04-03T02:22:04;99453.19;;;7.89;73.31
33697;BME280;20031;43.416;23.232;2023-04-03T02:24:30;99448.19;;;7.95;72.74
33697;BME280;20031;43.416;23.232;2023-04-03T02:26:56;99443.50;;;7.99;72.30
33697;BME280;20031;43.416;23.232;2023-04-03T02:29:21;99440.75;;;8.00;71.98
33697;BME280;20031;43.416;23.232;2023-04-03T02:31:47;99432.00;;;8.01;71.64
33697;BME280;20031;43.416;23.232;2023-04-03T02:34:12;99423.25;;;8.02;71.88
33697;BME280;20031;43.416;23.232;2023-04-03T02:36:38;99422.16;;;8.05;71.74
33697;BME280;20031;43.416;23.232;2023-04-03T02:39:04;99424.91;;;8.03;71.19
33697;BME280;20031;43.416;23.232;2023-04-03T02:41:29;99431.69;;;7.96;71.16
33697;BME280;20031;43.416;23.232;2023-04-03T02:44:01;99424.81;;;7.87;71.90
33697;BME280;20031;43.416;23.232;2023-04-03T02:46:27;99424.34;;;7.84;72.00
33697;BME280;20031;43.416;23.232;2023-04-03T02:48:52;99421.53;;;7.77;72.33
33697;BME280;20031;43.416;23.232;2023-04-03T02:51:18;99424.44;;;7.74;73.06
33697;BME280;20031;43.416;23.232;2023-04-03T02:53:43;99423.81;;;7.72;72.71
33697;BME280;20031;43.416;23.232;2023-04-03T02:56:09;99427.19;;;7.73;73.34
33697;BME280;20031;43.416;23.232;2023-04-03T02:58:34;99420.91;;;7.75;73.31
33697;BME280;20031;43.416;23.232;2023-04-03T03:01:01;99414.75;;;7.76;73.61
33697;BME280;20031;43.416;23.232;2023-04-03T03:03:26;99411.81;;;7.71;73.36
33697;BME280;20031;43.416;23.232;2023-04-03T03:06:09;99410.81;;;7.64;74.08
33697;BME280;20031;43.416;23.232;2023-04-03T03:08:36;99415.19;;;7.64;74.31
33697;BME280;20031;43.416;23.232;2023-04-03T03:11:02;99416.13;;;7.63;74.43
33697;BME280;20031;43.416;23.232;2023-04-03T03:13:28;99414.81;;;7.59;74.36
33697;BME280;20031;43.416;23.232;2023-04-03T03:15:54;99410.94;;;7.55;74.59
33697;BME280;20031;43.416;23.232;2023-04-03T03:18:19;99417.56;;;7.50;74.54
33697;BME280;20031;43.416;23.232;2023-04-03T03:20:45;99412.63;;;7.39;74.56
33697;BME280;20031;43.416;23.232;2023-04-03T03:23:11;99416.78;;;7.32;75.47
33697;BME280;20031;43.416;23.232;2023-04-03T03:25:40;99419.53;;;7.30;75.82
33697;BME280;20031;43.416;23.232;2023-04-03T03:28:06;99419.69;;;7.29;75.86
33697;BME280;20031;43.416;23.232;2023-04-03T03:30:32;99416.47;;;7.27;75.80
33697;BME280;20031;43.416;23.232;2023-04-03T03:32:57;99411.44;;;7.25;76.06
33697;BME280;20031;43.416;23.232;2023-04-03T03:35:23;99406.09;;;7.27;76.17
33697;BME280;20031;43.416;23.232;2023-04-03T03:37:48;99399.78;;;7.29;76.42
33697;BME280;20031;43.416;23.232;2023-04-03T03:40:14;99403.19;;;7.30;76.34
33697;BME280;20031;43.416;23.232;2023-04-03T03:42:39;99400.09;;;7.26;76.41
33697;BME280;20031;43.416;23.232;2023-04-03T03:45:06;99389.88;;;7.25;76.78
33697;BME280;20031;43.416;23.232;2023-04-03T03:47:31;99390.19;;;7.22;76.88
33697;BME280;20031;43.416;23.232;2023-04-03T03:49:57;99395.38;;;7.22;76.58
33697;BME280;20031;43.416;23.232;2023-04-03T03:52:22;99400.56;;;7.22;76.69
33697;BME280;20031;43.416;23.232;2023-04-03T03:54:48;99407.38;;;7.23;76.89
33697;BME280;20031;43.416;23.232;2023-04-03T03:57:13;99403.81;;;7.24;76.28
33697;BME280;20031;43.416;23.232;2023-04-03T03:59:40;99399.94;;;7.28;76.06
33697;BME280;20031;43.416;23.232;2023-04-03T04:02:06;99402.88;;;7.33;75.89
33697;BME280;20031;43.416;23.232;2023-04-03T04:04:31;99401.94;;;7.34;75.49
33697;BME280;20031;43.416;23.232;2023-04-03T04:06:56;99410.34;;;7.36;75.36
33697;BME280;20031;43.416;23.232;2023-04-03T04:09:22;99404.84;;;7.39;75.21
33697;BME280;20031;43.416;23.232;2023-04-03T04:11:47;99402.78;;;7.42;75.20
33697;BME280;20031;43.416;23.232;2023-04-03T04:14:13;99401.34;;;7.48;74.89
33697;BME280;20031;43.416;23.232;2023-04-03T04:16:38;99401.06;;;7.51;74.78
33697;BME280;20031;43.416;23.232;2023-04-03T04:19:04;99402.50;;;7.53;74.38
33697;BME280;20031;43.416;23.232;2023-04-03T04:21:29;99410.25;;;7.53;73.86
33697;BME280;20031;43.416;23.232;2023-04-03T04:23:55;99415.28;;;7.47;73.00
33697;BME280;20031;43.416;23.232;2023-04-03T04:26:20;99415.06;;;7.40;74.07
33697;BME280;20031;43.416;23.232;2023-04-03T04:28:46;99422.69;;;7.42;74.68
33697;BME280;20031;43.416;23.232;2023-04-03T04:31:11;99427.84;;;7.42;74.98
33697;BME280;20031;43.416;23.232;2023-04-03T04:33:37;99434.84;;;7.49;75.78
33697;BME280;20031;43.416;23.232;2023-04-03T04:36:02;99445.28;;;7.57;76.05
33697;BME280;20031;43.416;23.232;2023-04-03T04:38:28;99445.91;;;7.59;75.67
33697;BME280;20031;43.416;23.232;2023-04-03T04:40:53;99441.19;;;7.55;76.04
33697;BME280;20031;43.416;23.232;2023-04-03T04:43:19;99456.16;;;7.68;76.24
33697;BME280;20031;43.416;23.232;2023-04-03T04:45:44;99454.63;;;7.83;75.89
33697;BME280;20031;43.416;23.232;2023-04-03T04:48:10;99441.38;;;7.94;75.78
33697;BME280;20031;43.416;23.232;2023-04-03T04:50:35;99442.75;;;8.14;75.16
33697;BME280;20031;43.416;23.232;2023-04-03T04:53:01;99445.09;;;8.33;74.75
33697;BME280;20031;43.416;23.232;2023-04-03T04:55:26;99457.09;;;8.50;73.81
33697;BME280;20031;43.416;23.232;2023-04-03T04:57:51;99450.63;;;8.54;72.37
33697;BME280;20031;43.416;23.232;2023-04-03T05:00:17;99459.09;;;8.56;71.80
33697;BME280;20031;43.416;23.232;2023-04-03T05:02:43;99452.91;;;8.57;71.78
33697;BME280;20031;43.416;23.232;2023-04-03T05:05:09;99470.09;;;8.58;71.90
33697;BME280;20031;43.416;23.232;2023-04-03T05:07:34;99459.09;;;8.71;71.88
33697;BME280;20031;43.416;23.232;2023-04-03T05:10:01;99469.47;;;8.87;71.58
33697;BME280;20031;43.416;23.232;2023-04-03T05:12:27;99468.34;;;9.06;71.39
33697;BME280;20031;43.416;23.232;2023-04-03T05:14:53;99467.34;;;9.22;70.61
33697;BME280;20031;43.416;23.232;2023-04-03T05:17:18;99477.56;;;9.32;69.60
33697;BME280;20031;43.416;23.232;2023-04-03T05:19:44;99468.63;;;9.42;69.47
33697;BME280;20031;43.416;23.232;2023-04-03T05:22:09;99469.44;;;9.51;69.10
33697;BME280;20031;43.416;23.232;2023-04-03T05:24:35;99480.13;;;9.64;68.83
33697;BME280;20031;43.416;23.232;2023-04-03T05:27:00;99473.28;;;9.63;68.28
33697;BME280;20031;43.416;23.232;2023-04-03T05:29:26;99475.03;;;9.70;68.66
33697;BME280;20031;43.416;23.232;2023-04-03T05:31:51;99487.69;;;9.81;68.28
33697;BME280;20031;43.416;23.232;2023-04-03T05:34:17;99497.56;;;9.93;68.27
33697;BME280;20031;43.416;23.232;2023-04-03T05:36:42;99483.72;;;10.09;68.49
33697;BME280;20031;43.416;23.232;2023-04-03T05:39:08;99486.94;;;10.18;67.86
33697;BME280;20031;43.416;23.232;2023-04-03T05:41:34;99490.31;;;10.27;66.34
33697;BME280;20031;43.416;23.232;2023-04-03T05:43:59;99483.75;;;10.31;66.07
33697;BME280;20031;43.416;23.232;2023-04-03T05:46:26;99486.03;;;10.34;66.01
33697;BME280;20031;43.416;23.232;2023-04-03T05:48:51;99483.88;;;10.45;65.95
33697;BME280;20031;43.416;23.232;2023-04-03T05:51:39;99494.72;;;10.57;65.46
33697;BME280;20031;43.416;23.232;2023-04-03T05:54:18;99501.47;;;10.66;64.83
33697;BME280;20031;43.416;23.232;2023-04-03T05:56:44;99507.16;;;10.39;64.66
33697;BME280;20031;43.416;23.232;2023-04-03T05:59:10;99514.34;;;10.37;65.63
33697;BME280;20031;43.416;23.232;2023-04-03T06:01:36;99514.38;;;10.21;66.12
33697;BME280;20031;43.416;23.232;2023-04-03T06:04:02;99520.44;;;10.14;67.22
33697;BME280;20031;43.416;23.232;2023-04-03T06:06:54;99512.19;;;10.10;67.91
33697;BME280;20031;43.416;23.232;2023-04-03T06:09:23;99501.38;;;10.21;67.79
33697;BME280;20031;43.416;23.232;2023-04-03T06:11:49;99499.72;;;10.28;67.52
33697;BME280;20031;43.416;23.232;2023-04-03T06:14:15;99499.78;;;10.50;67.82
33697;BME280;20031;43.416;23.232;2023-04-03T06:16:41;99497.06;;;10.66;67.06
33697;BME280;20031;43.416;23.232;2023-04-03T06:19:08;99495.22;;;10.97;65.86
33697;BME280;20031;43.416;23.232;2023-04-03T06:21:34;99500.31;;;11.13;65.36
33697;BME280;20031;43.416;23.232;2023-04-03T06:24:01;99503.66;;;11.21;64.64
33697;BME280;20031;43.416;23.232;2023-04-03T06:26:27;99498.47;;;11.35;64.53
33697;BME280;20031;43.416;23.232;2023-04-03T06:28:53;99490.72;;;11.50;64.84
33697;BME280;20031;43.416;23.232;2023-04-03T06:31:24;99487.88;;;11.73;64.02
33697;BME280;20031;43.416;23.232;2023-04-03T06:33:55;99491.00;;;11.83;62.87
33697;BME280;20031;43.416;23.232;2023-04-03T06:36:27;99503.50;;;11.73;62.86
33697;BME280;20031;43.416;23.232;2023-04-03T06:39:01;99494.16;;;11.79;63.24
33697;BME280;20031;43.416;23.232;2023-04-03T06:41:29;99493.63;;;11.98;62.27
33697;BME280;20031;43.416;23.232;2023-04-03T06:43:55;99494.06;;;12.01;61.97
33697;BME280;20031;43.416;23.232;2023-04-03T06:46:23;99487.91;;;12.23;62.07
33697;BME280;20031;43.416;23.232;2023-04-03T06:48:49;99488.34;;;12.41;60.92
33697;BME280;20031;43.416;23.232;2023-04-03T06:51:23;99482.25;;;12.55;60.88
33697;BME280;20031;43.416;23.232;2023-04-03T06:53:51;99476.13;;;12.83;60.78
33697;BME280;20031;43.416;23.232;2023-04-03T06:56:17;99478.47;;;13.13;59.82
33697;BME280;20031;43.416;23.232;2023-04-03T06:58:44;99484.09;;;13.37;58.94
33697;BME280;20031;43.416;23.232;2023-04-03T07:01:11;99474.50;;;13.51;58.15
33697;BME280;20031;43.416;23.232;2023-04-03T07:03:38;99474.06;;;13.75;57.05
33697;BME280;20031;43.416;23.232;2023-04-03T07:06:05;99481.88;;;14.02;56.88
33697;BME280;20031;43.416;23.232;2023-04-03T07:08:32;99481.81;;;14.23;55.70
33697;BME280;20031;43.416;23.232;2023-04-03T07:10:58;99473.63;;;14.45;55.37
33697;BME280;20031;43.416;23.232;2023-04-03T07:13:24;99465.00;;;14.70;54.96
33697;BME280;20031;43.416;23.232;2023-04-03T07:15:49;99458.38;;;14.87;54.45
33697;BME280;20031;43.416;23.232;2023-04-03T07:18:15;99465.28;;;15.07;53.42
33697;BME280;20031;43.416;23.232;2023-04-03T07:20:42;99466.13;;;15.27;53.51
33697;BME280;20031;43.416;23.232;2023-04-03T07:23:07;99480.63;;;15.49;52.86
33697;BME280;20031;43.416;23.232;2023-04-03T07:25:33;99482.22;;;15.56;52.09
33697;BME280;20031;43.416;23.232;2023-04-03T07:27:58;99476.19;;;15.62;52.02
33697;BME280;20031;43.416;23.232;2023-04-03T07:30:24;99474.53;;;15.74;52.02
33697;BME280;20031;43.416;23.232;2023-04-03T07:32:50;99478.53;;;15.96;51.53
33697;BME280;20031;43.416;23.232;2023-04-03T07:35:16;99470.38;;;16.10;50.74
33697;BME280;20031;43.416;23.232;2023-04-03T07:37:42;99458.06;;;16.24;50.76
33697;BME280;20031;43.416;23.232;2023-04-03T07:40:08;99466.88;;;16.42;50.57
33697;BME280;20031;43.416;23.232;2023-04-03T07:42:34;99460.25;;;16.64;50.26
33697;BME280;20031;43.416;23.232;2023-04-03T07:45:00;99450.84;;;16.81;49.26
33697;BME280;20031;43.416;23.232;2023-04-03T07:47:27;99454.06;;;16.83;49.20
33697;BME280;20031;43.416;23.232;2023-04-03T07:49:52;99445.78;;;16.86;48.97
33697;BME280;20031;43.416;23.232;2023-04-03T07:52:17;99447.72;;;16.96;48.43
33697;BME280;20031;43.416;23.232;2023-04-03T07:54:43;99448.69;;;17.02;47.97
33697;BME280;20031;43.416;23.232;2023-04-03T07:57:08;99452.16;;;16.96;48.06
33697;BME280;20031;43.416;23.232;2023-04-03T07:59:34;99449.47;;;17.02;48.17
33697;BME280;20031;43.416;23.232;2023-04-03T08:01:59;99441.66;;;17.20;48.23
33697;BME280;20031;43.416;23.232;2023-04-03T08:04:25;99441.75;;;17.38;47.78
33697;BME280;20031;43.416;23.232;2023-04-03T08:06:51;99447.22;;;17.37;46.86
33697;BME280;20031;43.416;23.232;2023-04-03T08:09:18;99443.44;;;17.26;47.05
33697;BME280;20031;43.416;23.232;2023-04-03T08:11:44;99438.63;;;17.23;47.78
33697;BME280;20031;43.416;23.232;2023-04-03T08:14:11;99439.25;;;17.43;47.28
33697;BME280;20031;43.416;23.232;2023-04-03T08:16:42;99429.03;;;17.53;47.13
33697;BME280;20031;43.416;23.232;2023-04-03T08:19:08;99429.34;;;17.63;46.67
33697;BME280;20031;43.416;23.232;2023-04-03T08:21:33;99426.19;;;17.72;46.37
33697;BME280;20031;43.416;23.232;2023-04-03T08:23:58;99437.88;;;17.58;46.68
33697;BME280;20031;43.416;23.232;2023-04-03T08:26:24;99425.38;;;17.54;47.29
33697;BME280;20031;43.416;23.232;2023-04-03T08:28:55;99419.53;;;17.70;47.03
33697;BME280;20031;43.416;23.232;2023-04-03T08:31:26;99426.50;;;17.82;46.72
33697;BME280;20031;43.416;23.232;2023-04-03T08:33:56;99427.44;;;17.70;46.39
33697;BME280;20031;43.416;23.232;2023-04-03T08:36:26;99415.00;;;17.77;46.38
33697;BME280;20031;43.416;23.232;2023-04-03T08:38:53;99413.84;;;17.90;46.62
33697;BME280;20031;43.416;23.232;2023-04-03T08:49:51;99397.63;;;18.23;44.83
33697;BME280;20031;43.416;23.232;2023-04-03T08:52:22;99397.72;;;18.16;44.84
33697;BME280;20031;43.416;23.232;2023-04-03T08:54:58;99397.22;;;18.26;45.08
33697;BME280;20031;43.416;23.232;2023-04-03T08:57:39;99400.34;;;18.45;43.96
33697;BME280;20031;43.416;23.232;2023-04-03T09:00:17;99410.44;;;18.78;44.42
33697;BME280;20031;43.416;23.232;2023-04-03T09:02:49;99390.31;;;19.29;43.54
33697;BME280;20031;43.416;23.232;2023-04-03T09:10:49;99392.59;;;19.71;41.79
33697;BME280;20031;43.416;23.232;2023-04-03T09:15:45;99389.97;;;19.48;42.91
33697;BME280;20031;43.416;23.232;2023-04-03T09:18:25;99398.13;;;19.69;42.28
33697;BME280;20031;43.416;23.232;2023-04-03T09:21:10;99402.94;;;19.61;41.17
33697;BME280;20031;43.416;23.232;2023-04-03T09:23:45;99395.94;;;19.55;42.04
33697;BME280;20031;43.416;23.232;2023-04-03T09:28:54;99409.97;;;19.21;41.76
33697;BME280;20031;43.416;23.232;2023-04-03T09:31:26;99391.47;;;19.21;41.93
33697;BME280;20031;43.416;23.232;2023-04-03T09:34:02;99381.94;;;19.43;42.15
33697;BME280;20031;43.416;23.232;2023-04-03T09:36:38;99383.00;;;19.42;42.25
33697;BME280;20031;43.416;23.232;2023-04-03T09:39:07;99380.81;;;19.39;42.26
33697;BME280;20031;43.416;23.232;2023-04-03T09:41:35;99387.22;;;19.32;42.57
33697;BME280;20031;43.416;23.232;2023-04-03T09:44:00;99397.56;;;19.22;43.22
33697;BME280;20031;43.416;23.232;2023-04-03T09:46:34;99402.97;;;19.38;43.73
33697;BME280;20031;43.416;23.232;2023-04-03T09:49:04;99384.09;;;19.92;42.86
33697;BME280;20031;43.416;23.232;2023-04-03T09:51:32;99390.03;;;19.98;42.35
33697;BME280;20031;43.416;23.232;2023-04-03T09:53:58;99388.91;;;19.95;41.69
33697;BME280;20031;43.416;23.232;2023-04-03T09:56:26;99389.91;;;20.05;42.02
33697;BME280;20031;43.416;23.232;2023-04-03T10:04:16;99393.59;;;20.32;41.50
33697;BME280;20031;43.416;23.232;2023-04-03T10:06:50;99381.22;;;20.48;41.70
33697;BME280;20031;43.416;23.232;2023-04-03T10:09:31;99380.97;;;20.50;41.14
33697;BME280;20031;43.416;23.232;2023-04-03T10:12:05;99374.47;;;20.57;40.55
33697;BME280;20031;43.416;23.232;2023-04-03T10:14:33;99369.81;;;20.48;40.11
33697;BME280;20031;43.416;23.232;2023-04-03T10:17:03;99372.09;;;20.00;40.50
33697;BME280;20031;43.416;23.232;2023-04-03T10:19:41;99364.34;;;19.60;40.32
33697;BME280;20031;43.416;23.232;2023-04-03T10:24:58;99371.94;;;19.56;42.13
33697;BME280;20031;43.416;23.232;2023-04-03T10:36:06;99346.47;;;20.73;39.20
33697;BME280;20031;43.416;23.232;2023-04-03T10:44:18;99342.47;;;20.87;38.07
33697;BME280;20031;43.416;23.232;2023-04-03T10:46:49;99335.13;;;20.61;39.10
33697;BME280;20031;43.416;23.232;2023-04-03T10:55:31;99327.75;;;20.19;39.75
33697;BME280;20031;43.416;23.232;2023-04-03T10:57:31;99332.47;;;19.78;39.84
33697;BME280;20031;43.416;23.232;2023-04-03T10:59:57;99326.41;;;19.66;41.01
33697;BME280;20031;43.416;23.232;2023-04-03T11:02:27;99322.78;;;19.55;40.89
33697;BME280;20031;43.416;23.232;2023-04-03T11:05:04;99324.19;;;19.35;40.86
33697;BME280;20031;43.416;23.232;2023-04-03T11:07:38;99319.03;;;19.29;40.87
33697;BME280;20031;43.416;23.232;2023-04-03T11:10:13;99320.97;;;19.33;40.33
33697;BME280;20031;43.416;23.232;2023-04-03T11:12:46;99322.50;;;19.29;40.77
33697;BME280;20031;43.416;23.232;2023-04-03T11:15:16;99315.69;;;19.33;41.14
33697;BME280;20031;43.416;23.232;2023-04-03T11:17:48;99311.09;;;19.40;40.91
33697;BME280;20031;43.416;23.232;2023-04-03T11:20:30;99310.53;;;19.38;40.85
33697;BME280;20031;43.416;23.232;2023-04-03T11:23:06;99307.09;;;19.38;41.88
33697;BME280;20031;43.416;23.232;2023-04-03T11:25:34;99293.72;;;19.55;41.67
33697;BME280;20031;43.416;23.232;2023-04-03T11:28:04;99292.69;;;19.56;42.23
33697;BME280;20031;43.416;23.232;2023-04-03T11:30:38;99291.09;;;19.44;42.12
33697;BME280;20031;43.416;23.232;2023-04-03T11:35:58;99284.94;;;19.27;42.13
33697;BME280;20031;43.416;23.232;2023-04-03T11:38:31;99278.97;;;19.20;42.63
33697;BME280;20031;43.416;23.232;2023-04-03T11:41:03;99284.94;;;19.27;43.13
33697;BME280;20031;43.416;23.232;2023-04-03T11:43:32;99281.72;;;19.02;44.52
33697;BME280;20031;43.416;23.232;2023-04-03T11:46:00;99282.31;;;19.04;44.31
33697;BME280;20031;43.416;23.232;2023-04-03T11:53:40;99262.63;;;19.35;44.08
33697;BME280;20031;43.416;23.232;2023-04-03T12:04:20;99257.72;;;19.66;43.99
33697;BME280;20031;43.416;23.232;2023-04-03T12:12:39;99256.63;;;19.78;42.97
33697;BME280;20031;43.416;23.232;2023-04-03T12:15:19;99252.81;;;19.58;43.05
33697;BME280;20031;43.416;23.232;2023-04-03T12:17:45;99248.09;;;19.60;43.28
33697;BME280;20031;43.416;23.232;2023-04-03T12:20:52;99247.75;;;19.56;43.42
33697;BME280;20031;43.416;23.232;2023-04-03T12:23:34;99249.81;;;19.54;43.17
33697;BME280;20031;43.416;23.232;2023-04-03T12:26:19;99245.31;;;19.66;42.85
33697;BME280;20031;43.416;23.232;2023-04-03T12:28:48;99244.22;;;19.51;42.52
33697;BME280;20031;43.416;23.232;2023-04-03T12:31:16;99249.06;;;19.43;42.60
33697;BME280;20031;43.416;23.232;2023-04-03T12:36:45;99235.69;;;18.98;42.65
33697;BME280;20031;43.416;23.232;2023-04-03T12:42:03;99233.66;;;18.66;43.93
33697;BME280;20031;43.416;23.232;2023-04-03T12:44:36;99222.75;;;18.63;44.51
33697;BME280;20031;43.416;23.232;2023-04-03T12:47:20;99222.16;;;18.61;44.20
33697;BME280;20031;43.416;23.232;2023-04-03T12:49:49;99223.56;;;18.52;44.34
33697;BME280;20031;43.416;23.232;2023-04-03T12:52:38;99213.09;;;18.34;44.37
33697;BME280;20031;43.416;23.232;2023-04-03T12:55:13;99205.53;;;18.26;45.23
33697;BME280;20031;43.416;23.232;2023-04-03T12:57:42;99214.13;;;18.22;45.64
33697;BME280;20031;43.416;23.232;2023-04-03T13:02:46;99203.94;;;18.25;46.77
33697;BME280;20031;43.416;23.232;2023-04-03T13:05:18;99214.94;;;18.22;47.67
33697;BME280;20031;43.416;23.232;2023-04-03T13:07:44;99207.03;;;18.34;48.10
33697;BME280;20031;43.416;23.232;2023-04-03T13:10:16;99213.78;;;18.41;47.72
33697;BME280;20031;43.416;23.232;2023-04-03T13:12:55;99211.63;;;18.38;47.25
33697;BME280;20031;43.416;23.232;2023-04-03T13:15:28;99210.25;;;18.36;47.51
33697;BME280;20031;43.416;23.232;2023-04-03T13:17:55;99197.75;;;18.31;47.31
33697;BME280;20031;43.416;23.232;2023-04-03T13:20:29;99200.50;;;18.36;47.33
33697;BME280;20031;43.416;23.232;2023-04-03T13:23:07;99202.00;;;18.43;46.50
33697;BME280;20031;43.416;23.232;2023-04-03T13:25:36;99188.47;;;18.51;46.85
33697;BME280;20031;43.416;23.232;2023-04-03T13:28:05;99184.13;;;18.57;46.54
33697;BME280;20031;43.416;23.232;2023-04-03T13:30:37;99183.53;;;18.55;45.98
33697;BME280;20031;43.416;23.232;2023-04-03T13:33:19;99179.97;;;18.38;46.18
33697;BME280;20031;43.416;23.232;2023-04-03T13:35:46;99170.34;;;18.43;46.59
33697;BME280;20031;43.416;23.232;2023-04-03T13:40:50;99148.69;;;18.30;46.08
33697;BME280;20031;43.416;23.232;2023-04-03T13:43:22;99149.03;;;18.22;45.40
33697;BME280;20031;43.416;23.232;2023-04-03T13:48:44;99132.94;;;18.01;45.72
33697;BME280;20031;43.416;23.232;2023-04-03T13:53:43;99130.28;;;17.89;46.44
33697;BME280;20031;43.416;23.232;2023-04-03T13:56:18;99124.78;;;17.80;47.01
33697;BME280;20031;43.416;23.232;2023-04-03T14:01:48;99129.13;;;17.74;48.00
33697;BME280;20031;43.416;23.232;2023-04-03T14:04:24;99140.47;;;17.75;48.99
33697;BME280;20031;43.416;23.232;2023-04-03T14:06:51;99143.63;;;17.54;49.88
33697;BME280;20031;43.416;23.232;2023-04-03T14:09:18;99144.75;;;17.46;50.39
33697;BME280;20031;43.416;23.232;2023-04-03T14:11:45;99146.88;;;17.38;50.93
33697;BME280;20031;43.416;23.232;2023-04-03T14:14:15;99143.03;;;17.23;50.90
33697;BME280;20031;43.416;23.232;2023-04-03T14:16:43;99148.00;;;17.13;51.02
33697;BME280;20031;43.416;23.232;2023-04-03T14:19:28;99151.97;;;17.04;51.24
33697;BME280;20031;43.416;23.232;2023-04-03T14:21:55;99160.94;;;16.96;51.40
33697;BME280;20031;43.416;23.232;2023-04-03T14:24:21;99158.97;;;16.92;51.78
33697;BME280;20031;43.416;23.232;2023-04-03T14:26:48;99163.28;;;16.86;51.95
33697;BME280;20031;43.416;23.232;2023-04-03T14:29:15;99172.06;;;16.81;51.91
33697;BME280;20031;43.416;23.232;2023-04-03T14:31:43;99167.72;;;16.68;51.88
33697;BME280;20031;43.416;23.232;2023-04-03T14:34:10;99179.78;;;16.58;51.81
33697;BME280;20031;43.416;23.232;2023-04-03T14:36:36;99178.47;;;16.49;52.19